sensor_id;sensor_type;location;lat;lon;timestamp;P1;durP1;ratioP1;P2;durP2;ratioP2
22929;SDS011;11630;42.660;23.292;2022-07-23T00:01:21;12.27;;;4.40;;
22929;SDS011;11630;42.660;23.292;2022-07-23T00:03:52;10.97;;;5.60;;
22929;SDS011;11630;42.660;23.292;2022-07-23T00:06:23;5.67;;;4.67;;
22929;SDS011;11630;42.660;23.292;2022-07-23T00:08:53;10.17;;;5.40;;
22929;SDS011;11630;42.660;23.292;2022-07-23T00:11:24;8.20;;;5.30;;
22929;SDS011;11630;42.660;23.292;2022-07-23T00:13:58;10.97;;;5.20;;
22929;SDS011;11630;42.660;23.292;2022-07-23T00:16:29;7.53;;;5.57;;
22929;SDS011;11630;42.660;23.292;2022-07-23T00:18:59;7.27;;;5.87;;
22929;SDS011;11630;42.660;23.292;2022-07-23T00:21:31;9.80;;;5.00;;
22929;SDS011;11630;42.660;23.292;2022-07-23T00:24:02;9.13;;;5.40;;
22929;SDS011;11630;42.660;23.292;2022-07-23T00:26:33;7.53;;;5.20;;
22929;SDS011;11630;42.660;23.292;2022-07-23T00:29:04;8.97;;;5.07;;
22929;SDS011;11630;42.660;23.292;2022-07-23T00:31:35;31.80;;;7.97;;
22929;SDS011;11630;42.660;23.292;2022-07-23T00:34:06;18.13;;;6.67;;
22929;SDS011;11630;42.660;23.292;2022-07-23T00:36:37;16.50;;;6.67;;
22929;SDS011;11630;42.660;23.292;2022-07-23T00:39:08;18.87;;;6.30;;
22929;SDS011;11630;42.660;23.292;2022-07-23T00:41:38;15.67;;;5.30;;
22929;SDS011;11630;42.660;23.292;2022-07-23T00:44:16;9.53;;;5.53;;
22929;SDS011;11630;42.660;23.292;2022-07-23T00:46:51;11.00;;;5.70;;
22929;SDS011;11630;42.660;23.292;2022-07-23T00:49:24;13.87;;;6.13;;
22929;SDS011;11630;42.660;23.292;2022-07-23T00:51:56;13.43;;;5.93;;
22929;SDS011;11630;42.660;23.292;2022-07-23T00:54:27;8.10;;;5.40;;
22929;SDS011;11630;42.660;23.292;2022-07-23T00:56:58;8.43;;;6.20;;
22929;SDS011;11630;42.660;23.292;2022-07-23T00:59:29;9.23;;;6.00;;
22929;SDS011;11630;42.660;23.292;2022-07-23T01:02:01;6.80;;;5.57;;
22929;SDS011;11630;42.660;23.292;2022-07-23T01:04:32;10.53;;;5.97;;
22929;SDS011;11630;42.660;23.292;2022-07-23T01:07:03;11.67;;;6.63;;
22929;SDS011;11630;42.660;23.292;2022-07-23T01:09:36;15.97;;;7.10;;
22929;SDS011;11630;42.660;23.292;2022-07-23T01:12:09;14.87;;;6.47;;
22929;SDS011;11630;42.660;23.292;2022-07-23T01:14:41;12.50;;;5.97;;
22929;SDS011;11630;42.660;23.292;2022-07-23T01:17:12;7.47;;;5.90;;
22929;SDS011;11630;42.660;23.292;2022-07-23T01:19:43;7.17;;;5.47;;
22929;SDS011;11630;42.660;23.292;2022-07-23T01:22:15;11.83;;;6.17;;
22929;SDS011;11630;42.660;23.292;2022-07-23T01:24:48;9.10;;;5.50;;
22929;SDS011;11630;42.660;23.292;2022-07-23T01:27:19;6.73;;;5.87;;
22929;SDS011;11630;42.660;23.292;2022-07-23T01:29:50;8.53;;;6.87;;
22929;SDS011;11630;42.660;23.292;2022-07-23T01:32:23;10.03;;;6.97;;
22929;SDS011;11630;42.660;23.292;2022-07-23T01:34:54;14.17;;;6.40;;
22929;SDS011;11630;42.660;23.292;2022-07-23T01:37:24;11.33;;;6.53;;
22929;SDS011;11630;42.660;23.292;2022-07-23T01:39:58;9.97;;;6.33;;
22929;SDS011;11630;42.660;23.292;2022-07-23T01:42:29;12.20;;;7.37;;
22929;SDS011;11630;42.660;23.292;2022-07-23T01:45:00;9.67;;;6.30;;
22929;SDS011;11630;42.660;23.292;2022-07-23T01:47:31;10.83;;;6.60;;
22929;SDS011;11630;42.660;23.292;2022-07-23T01:50:02;11.17;;;7.17;;
22929;SDS011;11630;42.660;23.292;2022-07-23T01:52:33;10.27;;;7.73;;
22929;SDS011;11630;42.660;23.292;2022-07-23T01:55:05;14.77;;;6.83;;
22929;SDS011;11630;42.660;23.292;2022-07-23T01:57:35;12.30;;;7.10;;
22929;SDS011;11630;42.660;23.292;2022-07-23T02:00:08;11.10;;;7.00;;
22929;SDS011;11630;42.660;23.292;2022-07-23T02:02:39;13.67;;;7.53;;
22929;SDS011;11630;42.660;23.292;2022-07-23T02:05:10;11.60;;;6.97;;
22929;SDS011;11630;42.660;23.292;2022-07-23T02:07:41;7.53;;;6.03;;
22929;SDS011;11630;42.660;23.292;2022-07-23T02:10:14;13.57;;;7.37;;
22929;SDS011;11630;42.660;23.292;2022-07-23T02:12:44;16.67;;;7.57;;
22929;SDS011;11630;42.660;23.292;2022-07-23T02:15:15;13.20;;;6.73;;
22929;SDS011;11630;42.660;23.292;2022-07-23T02:17:49;11.83;;;6.47;;
22929;SDS011;11630;42.660;23.292;2022-07-23T02:20:21;12.83;;;7.13;;
22929;SDS011;11630;42.660;23.292;2022-07-23T02:22:53;11.90;;;7.80;;
22929;SDS011;11630;42.660;23.292;2022-07-23T02:25:24;10.73;;;7.30;;
22929;SDS011;11630;42.660;23.292;2022-07-23T02:27:55;10.57;;;7.13;;
22929;SDS011;11630;42.660;23.292;2022-07-23T02:30:26;11.83;;;7.17;;
22929;SDS011;11630;42.660;23.292;2022-07-23T02:32:57;11.03;;;6.83;;
22929;SDS011;11630;42.660;23.292;2022-07-23T02:35:28;14.93;;;7.73;;
22929;SDS011;11630;42.660;23.292;2022-07-23T02:38:01;10.37;;;6.43;;
22929;SDS011;11630;42.660;23.292;2022-07-23T02:40:30;13.07;;;6.73;;
22929;SDS011;11630;42.660;23.292;2022-07-23T02:43:01;9.47;;;6.30;;
22929;SDS011;11630;42.660;23.292;2022-07-23T02:45:32;14.80;;;6.43;;
22929;SDS011;11630;42.660;23.292;2022-07-23T02:48:04;11.13;;;6.83;;
22929;SDS011;11630;42.660;23.292;2022-07-23T02:50:35;11.13;;;6.13;;
22929;SDS011;11630;42.660;23.292;2022-07-23T02:53:05;15.03;;;6.00;;
22929;SDS011;11630;42.660;23.292;2022-07-23T02:55:36;16.43;;;7.03;;
22929;SDS011;11630;42.660;23.292;2022-07-23T02:58:09;12.73;;;6.07;;
22929;SDS011;11630;42.660;23.292;2022-07-23T03:00:40;12.83;;;6.37;;
22929;SDS011;11630;42.660;23.292;2022-07-23T03:03:12;11.77;;;6.63;;
22929;SDS011;11630;42.660;23.292;2022-07-23T03:05:42;14.97;;;6.80;;
22929;SDS011;11630;42.660;23.292;2022-07-23T03:08:12;9.60;;;6.57;;
22929;SDS011;11630;42.660;23.292;2022-07-23T03:10:43;9.50;;;5.90;;
22929;SDS011;11630;42.660;23.292;2022-07-23T03:13:14;12.43;;;6.33;;
22929;SDS011;11630;42.660;23.292;2022-07-23T03:15:47;9.53;;;6.00;;
22929;SDS011;11630;42.660;23.292;2022-07-23T03:18:20;15.03;;;6.67;;
22929;SDS011;11630;42.660;23.292;2022-07-23T03:20:51;9.60;;;6.33;;
22929;SDS011;11630;42.660;23.292;2022-07-23T03:23:23;10.70;;;6.67;;
22929;SDS011;11630;42.660;23.292;2022-07-23T03:25:53;11.87;;;6.30;;
22929;SDS011;11630;42.660;23.292;2022-07-23T03:28:24;15.90;;;8.53;;
22929;SDS011;11630;42.660;23.292;2022-07-23T03:30:54;14.97;;;6.73;;
22929;SDS011;11630;42.660;23.292;2022-07-23T03:33:25;19.47;;;7.53;;
22929;SDS011;11630;42.660;23.292;2022-07-23T03:35:55;15.27;;;6.50;;
22929;SDS011;11630;42.660;23.292;2022-07-23T03:38:26;12.43;;;7.07;;
22929;SDS011;11630;42.660;23.292;2022-07-23T03:40:57;11.67;;;6.63;;
22929;SDS011;11630;42.660;23.292;2022-07-23T03:43:28;37.63;;;8.07;;
22929;SDS011;11630;42.660;23.292;2022-07-23T03:46:00;22.80;;;7.27;;
22929;SDS011;11630;42.660;23.292;2022-07-23T03:48:31;36.17;;;9.27;;
22929;SDS011;11630;42.660;23.292;2022-07-23T03:51:02;14.03;;;7.93;;
22929;SDS011;11630;42.660;23.292;2022-07-23T03:53:33;10.03;;;7.33;;
22929;SDS011;11630;42.660;23.292;2022-07-23T03:56:04;14.20;;;6.80;;
22929;SDS011;11630;42.660;23.292;2022-07-23T03:58:35;13.03;;;7.00;;
22929;SDS011;11630;42.660;23.292;2022-07-23T04:01:06;29.47;;;10.73;;
22929;SDS011;11630;42.660;23.292;2022-07-23T04:03:38;15.30;;;7.43;;
22929;SDS011;11630;42.660;23.292;2022-07-23T04:06:14;22.33;;;7.80;;
22929;SDS011;11630;42.660;23.292;2022-07-23T04:08:44;11.80;;;7.30;;
22929;SDS011;11630;42.660;23.292;2022-07-23T04:11:15;19.20;;;7.40;;
22929;SDS011;11630;42.660;23.292;2022-07-23T04:13:46;18.90;;;7.57;;
22929;SDS011;11630;42.660;23.292;2022-07-23T04:16:16;19.97;;;7.07;;
22929;SDS011;11630;42.660;23.292;2022-07-23T04:18:48;14.10;;;6.97;;
22929;SDS011;11630;42.660;23.292;2022-07-23T04:21:18;14.83;;;6.73;;
22929;SDS011;11630;42.660;23.292;2022-07-23T04:23:49;28.90;;;8.13;;
22929;SDS011;11630;42.660;23.292;2022-07-23T04:26:21;14.43;;;6.77;;
22929;SDS011;11630;42.660;23.292;2022-07-23T04:28:51;19.37;;;7.40;;
22929;SDS011;11630;42.660;23.292;2022-07-23T04:31:23;16.97;;;6.80;;
22929;SDS011;11630;42.660;23.292;2022-07-23T04:33:54;17.87;;;7.97;;
22929;SDS011;11630;42.660;23.292;2022-07-23T04:36:25;17.13;;;7.23;;
22929;SDS011;11630;42.660;23.292;2022-07-23T04:38:55;17.93;;;7.73;;
22929;SDS011;11630;42.660;23.292;2022-07-23T04:41:26;12.10;;;7.40;;
22929;SDS011;11630;42.660;23.292;2022-07-23T04:43:57;12.03;;;7.40;;
22929;SDS011;11630;42.660;23.292;2022-07-23T04:46:27;17.87;;;8.10;;
22929;SDS011;11630;42.660;23.292;2022-07-23T04:48:58;18.80;;;8.07;;
22929;SDS011;11630;42.660;23.292;2022-07-23T04:51:29;16.50;;;8.00;;
22929;SDS011;11630;42.660;23.292;2022-07-23T04:53:59;14.27;;;8.07;;
22929;SDS011;11630;42.660;23.292;2022-07-23T04:56:30;15.10;;;7.90;;
22929;SDS011;11630;42.660;23.292;2022-07-23T04:59:01;21.40;;;8.90;;
22929;SDS011;11630;42.660;23.292;2022-07-23T05:01:32;15.90;;;8.80;;
22929;SDS011;11630;42.660;23.292;2022-07-23T05:04:03;18.27;;;9.23;;
22929;SDS011;11630;42.660;23.292;2022-07-23T05:06:34;17.30;;;9.00;;
22929;SDS011;11630;42.660;23.292;2022-07-23T05:09:06;15.90;;;8.93;;
22929;SDS011;11630;42.660;23.292;2022-07-23T05:11:36;20.00;;;9.07;;
22929;SDS011;11630;42.660;23.292;2022-07-23T05:14:09;15.33;;;9.90;;
22929;SDS011;11630;42.660;23.292;2022-07-23T05:16:39;21.53;;;9.20;;
22929;SDS011;11630;42.660;23.292;2022-07-23T05:19:10;11.70;;;8.43;;
22929;SDS011;11630;42.660;23.292;2022-07-23T05:21:42;11.83;;;8.00;;
22929;SDS011;11630;42.660;23.292;2022-07-23T05:24:13;25.03;;;11.73;;
22929;SDS011;11630;42.660;23.292;2022-07-23T05:26:44;21.07;;;10.13;;
22929;SDS011;11630;42.660;23.292;2022-07-23T05:29:16;17.07;;;8.93;;
22929;SDS011;11630;42.660;23.292;2022-07-23T05:31:46;20.50;;;10.10;;
22929;SDS011;11630;42.660;23.292;2022-07-23T05:34:17;16.27;;;9.70;;
22929;SDS011;11630;42.660;23.292;2022-07-23T05:36:48;16.27;;;9.60;;
22929;SDS011;11630;42.660;23.292;2022-07-23T05:39:18;15.83;;;9.20;;
22929;SDS011;11630;42.660;23.292;2022-07-23T05:41:49;12.17;;;8.90;;
22929;SDS011;11630;42.660;23.292;2022-07-23T05:44:19;12.40;;;8.37;;
22929;SDS011;11630;42.660;23.292;2022-07-23T05:46:50;19.93;;;8.67;;
22929;SDS011;11630;42.660;23.292;2022-07-23T05:49:22;10.77;;;8.80;;
22929;SDS011;11630;42.660;23.292;2022-07-23T05:51:53;17.63;;;9.97;;
22929;SDS011;11630;42.660;23.292;2022-07-23T05:54:25;14.47;;;8.87;;
22929;SDS011;11630;42.660;23.292;2022-07-23T05:56:56;15.60;;;9.17;;
22929;SDS011;11630;42.660;23.292;2022-07-23T05:59:28;13.97;;;8.80;;
22929;SDS011;11630;42.660;23.292;2022-07-23T06:01:58;12.63;;;8.03;;
22929;SDS011;11630;42.660;23.292;2022-07-23T06:04:30;14.00;;;7.87;;
22929;SDS011;11630;42.660;23.292;2022-07-23T06:07:00;13.57;;;8.23;;
22929;SDS011;11630;42.660;23.292;2022-07-23T06:09:31;17.57;;;8.60;;
22929;SDS011;11630;42.660;23.292;2022-07-23T06:12:02;12.53;;;9.23;;
22929;SDS011;11630;42.660;23.292;2022-07-23T06:14:33;11.60;;;8.10;;
22929;SDS011;11630;42.660;23.292;2022-07-23T06:17:05;12.37;;;7.93;;
22929;SDS011;11630;42.660;23.292;2022-07-23T06:19:36;17.47;;;8.17;;
22929;SDS011;11630;42.660;23.292;2022-07-23T06:22:07;9.70;;;7.93;;
22929;SDS011;11630;42.660;23.292;2022-07-23T06:24:38;15.07;;;7.17;;
22929;SDS011;11630;42.660;23.292;2022-07-23T06:27:08;14.83;;;7.93;;
22929;SDS011;11630;42.660;23.292;2022-07-23T06:29:42;19.37;;;8.10;;
22929;SDS011;11630;42.660;23.292;2022-07-23T06:32:12;13.30;;;7.90;;
22929;SDS011;11630;42.660;23.292;2022-07-23T06:34:42;23.20;;;8.23;;
22929;SDS011;11630;42.660;23.292;2022-07-23T06:37:14;17.10;;;8.67;;
22929;SDS011;11630;42.660;23.292;2022-07-23T06:39:43;14.00;;;7.63;;
22929;SDS011;11630;42.660;23.292;2022-07-23T06:42:14;15.30;;;7.17;;
22929;SDS011;11630;42.660;23.292;2022-07-23T06:44:45;17.17;;;7.80;;
22929;SDS011;11630;42.660;23.292;2022-07-23T06:47:16;21.80;;;7.20;;
22929;SDS011;11630;42.660;23.292;2022-07-23T06:49:47;16.47;;;7.67;;
22929;SDS011;11630;42.660;23.292;2022-07-23T06:52:20;14.20;;;7.07;;
22929;SDS011;11630;42.660;23.292;2022-07-23T06:54:50;15.40;;;8.28;;
22929;SDS011;11630;42.660;23.292;2022-07-23T06:57:22;19.95;;;7.22;;
22929;SDS011;11630;42.660;23.292;2022-07-23T06:59:52;12.80;;;7.07;;
22929;SDS011;11630;42.660;23.292;2022-07-23T07:02:23;9.55;;;7.03;;
22929;SDS011;11630;42.660;23.292;2022-07-23T07:04:53;11.12;;;6.55;;
22929;SDS011;11630;42.660;23.292;2022-07-23T07:07:24;16.48;;;7.47;;
22929;SDS011;11630;42.660;23.292;2022-07-23T07:09:55;13.27;;;6.43;;
22929;SDS011;11630;42.660;23.292;2022-07-23T07:12:33;14.00;;;7.53;;
22929;SDS011;11630;42.660;23.292;2022-07-23T07:15:05;15.65;;;7.37;;
22929;SDS011;11630;42.660;23.292;2022-07-23T07:17:37;12.87;;;7.47;;
22929;SDS011;11630;42.660;23.292;2022-07-23T07:20:09;14.13;;;7.63;;
22929;SDS011;11630;42.660;23.292;2022-07-23T07:22:41;13.60;;;7.73;;
22929;SDS011;11630;42.660;23.292;2022-07-23T07:25:13;11.85;;;6.42;;
22929;SDS011;11630;42.660;23.292;2022-07-23T07:27:44;13.65;;;6.80;;
22929;SDS011;11630;42.660;23.292;2022-07-23T07:30:15;10.53;;;7.37;;
22929;SDS011;11630;42.660;23.292;2022-07-23T07:32:45;12.50;;;7.00;;
22929;SDS011;11630;42.660;23.292;2022-07-23T07:35:14;9.18;;;7.40;;
22929;SDS011;11630;42.660;23.292;2022-07-23T07:37:45;14.83;;;7.60;;
22929;SDS011;11630;42.660;23.292;2022-07-23T07:40:17;23.10;;;8.63;;
22929;SDS011;11630;42.660;23.292;2022-07-23T07:42:50;20.20;;;8.05;;
22929;SDS011;11630;42.660;23.292;2022-07-23T07:45:23;14.38;;;8.25;;
22929;SDS011;11630;42.660;23.292;2022-07-23T07:47:54;12.07;;;8.10;;
22929;SDS011;11630;42.660;23.292;2022-07-23T07:50:26;13.20;;;7.97;;
22929;SDS011;11630;42.660;23.292;2022-07-23T07:52:57;10.65;;;8.05;;
22929;SDS011;11630;42.660;23.292;2022-07-23T07:55:28;9.00;;;7.15;;
22929;SDS011;11630;42.660;23.292;2022-07-23T07:57:59;10.55;;;7.22;;
22929;SDS011;11630;42.660;23.292;2022-07-23T08:00:29;13.48;;;7.30;;
22929;SDS011;11630;42.660;23.292;2022-07-23T08:02:59;11.28;;;6.90;;
22929;SDS011;11630;42.660;23.292;2022-07-23T08:05:30;12.93;;;7.87;;
22929;SDS011;11630;42.660;23.292;2022-07-23T08:08:01;11.83;;;7.20;;
22929;SDS011;11630;42.660;23.292;2022-07-23T08:10:31;15.38;;;7.92;;
22929;SDS011;11630;42.660;23.292;2022-07-23T08:13:03;16.85;;;7.53;;
22929;SDS011;11630;42.660;23.292;2022-07-23T08:15:33;16.52;;;7.37;;
22929;SDS011;11630;42.660;23.292;2022-07-23T08:18:04;13.50;;;7.28;;
22929;SDS011;11630;42.660;23.292;2022-07-23T08:20:40;12.43;;;7.05;;
22929;SDS011;11630;42.660;23.292;2022-07-23T08:23:07;19.25;;;7.50;;
22929;SDS011;11630;42.660;23.292;2022-07-23T08:25:42;12.50;;;7.87;;
22929;SDS011;11630;42.660;23.292;2022-07-23T08:28:11;16.27;;;7.12;;
22929;SDS011;11630;42.660;23.292;2022-07-23T08:30:43;11.45;;;6.78;;
22929;SDS011;11630;42.660;23.292;2022-07-23T08:33:15;9.50;;;7.45;;
22929;SDS011;11630;42.660;23.292;2022-07-23T08:35:48;12.40;;;8.35;;
22929;SDS011;11630;42.660;23.292;2022-07-23T08:38:20;15.43;;;8.53;;
22929;SDS011;11630;42.660;23.292;2022-07-23T08:40:51;12.25;;;7.45;;
22929;SDS011;11630;42.660;23.292;2022-07-23T08:43:25;12.90;;;7.78;;
22929;SDS011;11630;42.660;23.292;2022-07-23T08:46:00;12.47;;;8.30;;
22929;SDS011;11630;42.660;23.292;2022-07-23T08:48:32;14.60;;;7.90;;
22929;SDS011;11630;42.660;23.292;2022-07-23T08:51:05;14.13;;;8.25;;
22929;SDS011;11630;42.660;23.292;2022-07-23T08:53:36;20.65;;;8.63;;
22929;SDS011;11630;42.660;23.292;2022-07-23T08:56:07;19.60;;;9.00;;
22929;SDS011;11630;42.660;23.292;2022-07-23T08:58:38;11.80;;;7.85;;
22929;SDS011;11630;42.660;23.292;2022-07-23T09:01:12;19.57;;;7.58;;
22929;SDS011;11630;42.660;23.292;2022-07-23T09:03:43;19.73;;;7.65;;
22929;SDS011;11630;42.660;23.292;2022-07-23T09:06:14;13.05;;;7.85;;
22929;SDS011;11630;42.660;23.292;2022-07-23T09:08:45;16.52;;;7.62;;
22929;SDS011;11630;42.660;23.292;2022-07-23T09:11:17;16.07;;;7.45;;
22929;SDS011;11630;42.660;23.292;2022-07-23T09:13:49;11.43;;;7.40;;
22929;SDS011;11630;42.660;23.292;2022-07-23T09:16:33;12.53;;;8.85;;
22929;SDS011;11630;42.660;23.292;2022-07-23T09:19:05;16.62;;;7.58;;
22929;SDS011;11630;42.660;23.292;2022-07-23T09:21:35;16.40;;;9.20;;
22929;SDS011;11630;42.660;23.292;2022-07-23T09:24:12;16.70;;;8.38;;
22929;SDS011;11630;42.660;23.292;2022-07-23T09:26:56;12.95;;;7.08;;
22929;SDS011;11630;42.660;23.292;2022-07-23T09:29:28;13.50;;;6.90;;
22929;SDS011;11630;42.660;23.292;2022-07-23T09:31:59;25.20;;;10.18;;
22929;SDS011;11630;42.660;23.292;2022-07-23T09:34:32;12.73;;;7.40;;
22929;SDS011;11630;42.660;23.292;2022-07-23T09:37:09;14.25;;;7.17;;
22929;SDS011;11630;42.660;23.292;2022-07-23T09:39:44;10.80;;;7.42;;
22929;SDS011;11630;42.660;23.292;2022-07-23T09:42:19;12.20;;;7.45;;
22929;SDS011;11630;42.660;23.292;2022-07-23T09:44:53;22.40;;;7.95;;
22929;SDS011;11630;42.660;23.292;2022-07-23T09:47:25;12.78;;;7.17;;
22929;SDS011;11630;42.660;23.292;2022-07-23T09:52:48;22.30;;;9.03;;
22929;SDS011;11630;42.660;23.292;2022-07-23T09:55:18;30.92;;;7.37;;
22929;SDS011;11630;42.660;23.292;2022-07-23T09:57:50;13.80;;;6.90;;
22929;SDS011;11630;42.660;23.292;2022-07-23T10:00:21;26.33;;;7.05;;
22929;SDS011;11630;42.660;23.292;2022-07-23T10:02:53;8.70;;;5.80;;
22929;SDS011;11630;42.660;23.292;2022-07-23T10:05:25;10.58;;;5.28;;
22929;SDS011;11630;42.660;23.292;2022-07-23T10:07:57;9.55;;;6.80;;
22929;SDS011;11630;42.660;23.292;2022-07-23T10:10:30;8.30;;;5.47;;
22929;SDS011;11630;42.660;23.292;2022-07-23T10:13:02;12.03;;;7.60;;
22929;SDS011;11630;42.660;23.292;2022-07-23T10:15:48;9.15;;;6.00;;
22929;SDS011;11630;42.660;23.292;2022-07-23T10:18:19;10.95;;;6.03;;
22929;SDS011;11630;42.660;23.292;2022-07-23T10:20:51;13.55;;;6.35;;
22929;SDS011;11630;42.660;23.292;2022-07-23T10:23:32;16.80;;;7.45;;
22929;SDS011;11630;42.660;23.292;2022-07-23T10:26:20;11.60;;;6.95;;
22929;SDS011;11630;42.660;23.292;2022-07-23T10:29:13;9.53;;;6.10;;
22929;SDS011;11630;42.660;23.292;2022-07-23T10:37:14;15.38;;;6.03;;
22929;SDS011;11630;42.660;23.292;2022-07-23T10:39:45;13.70;;;6.55;;
22929;SDS011;11630;42.660;23.292;2022-07-23T10:42:17;10.78;;;6.35;;
22929;SDS011;11630;42.660;23.292;2022-07-23T10:44:48;13.18;;;6.17;;
22929;SDS011;11630;42.660;23.292;2022-07-23T10:47:28;11.38;;;6.78;;
22929;SDS011;11630;42.660;23.292;2022-07-23T10:50:18;13.05;;;6.15;;
22929;SDS011;11630;42.660;23.292;2022-07-23T10:58:10;11.18;;;5.80;;
22929;SDS011;11630;42.660;23.292;2022-07-23T11:00:41;12.10;;;5.00;;
22929;SDS011;11630;42.660;23.292;2022-07-23T11:03:31;9.58;;;5.40;;
22929;SDS011;11630;42.660;23.292;2022-07-23T11:06:05;12.63;;;5.10;;
22929;SDS011;11630;42.660;23.292;2022-07-23T11:08:37;12.53;;;5.30;;
22929;SDS011;11630;42.660;23.292;2022-07-23T11:11:10;11.93;;;5.53;;
22929;SDS011;11630;42.660;23.292;2022-07-23T11:13:46;14.30;;;5.60;;
22929;SDS011;11630;42.660;23.292;2022-07-23T11:16:19;14.23;;;5.22;;
22929;SDS011;11630;42.660;23.292;2022-07-23T11:18:55;12.13;;;5.80;;
22929;SDS011;11630;42.660;23.292;2022-07-23T11:24:05;15.58;;;5.20;;
22929;SDS011;11630;42.660;23.292;2022-07-23T11:26:42;13.60;;;5.30;;
22929;SDS011;11630;42.660;23.292;2022-07-23T11:32:04;16.90;;;5.05;;
22929;SDS011;11630;42.660;23.292;2022-07-23T11:37:10;14.78;;;5.65;;
22929;SDS011;11630;42.660;23.292;2022-07-23T11:39:58;13.18;;;4.85;;
22929;SDS011;11630;42.660;23.292;2022-07-23T11:42:28;12.68;;;4.47;;
22929;SDS011;11630;42.660;23.292;2022-07-23T11:45:01;12.53;;;5.58;;
22929;SDS011;11630;42.660;23.292;2022-07-23T11:47:32;15.32;;;4.90;;
22929;SDS011;11630;42.660;23.292;2022-07-23T11:50:05;8.78;;;4.20;;
22929;SDS011;11630;42.660;23.292;2022-07-23T11:52:36;13.98;;;4.97;;
22929;SDS011;11630;42.660;23.292;2022-07-23T11:55:07;12.45;;;4.42;;
22929;SDS011;11630;42.660;23.292;2022-07-23T11:57:39;15.95;;;5.60;;
22929;SDS011;11630;42.660;23.292;2022-07-23T12:00:11;14.90;;;4.58;;
22929;SDS011;11630;42.660;23.292;2022-07-23T12:02:49;15.38;;;5.10;;
22929;SDS011;11630;42.660;23.292;2022-07-23T12:05:25;21.05;;;5.85;;
22929;SDS011;11630;42.660;23.292;2022-07-23T12:08:13;16.32;;;5.05;;
22929;SDS011;11630;42.660;23.292;2022-07-23T12:10:44;22.82;;;4.90;;
22929;SDS011;11630;42.660;23.292;2022-07-23T12:13:15;11.18;;;4.30;;
22929;SDS011;11630;42.660;23.292;2022-07-23T12:15:47;12.78;;;4.90;;
22929;SDS011;11630;42.660;23.292;2022-07-23T12:18:25;14.50;;;5.00;;
22929;SDS011;11630;42.660;23.292;2022-07-23T12:20:57;13.55;;;4.45;;
22929;SDS011;11630;42.660;23.292;2022-07-23T12:23:28;16.73;;;4.83;;
22929;SDS011;11630;42.660;23.292;2022-07-23T12:26:00;21.62;;;5.25;;
22929;SDS011;11630;42.660;23.292;2022-07-23T12:28:32;13.60;;;4.55;;
22929;SDS011;11630;42.660;23.292;2022-07-23T12:31:03;13.80;;;5.10;;
22929;SDS011;11630;42.660;23.292;2022-07-23T12:33:38;9.15;;;4.58;;
22929;SDS011;11630;42.660;23.292;2022-07-23T12:36:09;17.45;;;4.90;;
22929;SDS011;11630;42.660;23.292;2022-07-23T12:38:41;10.48;;;4.55;;
22929;SDS011;11630;42.660;23.292;2022-07-23T12:41:11;17.00;;;4.30;;
22929;SDS011;11630;42.660;23.292;2022-07-23T12:43:44;14.45;;;4.97;;
22929;SDS011;11630;42.660;23.292;2022-07-23T12:46:18;17.32;;;5.15;;
22929;SDS011;11630;42.660;23.292;2022-07-23T12:51:27;16.73;;;5.03;;
22929;SDS011;11630;42.660;23.292;2022-07-23T12:53:58;19.48;;;5.42;;
22929;SDS011;11630;42.660;23.292;2022-07-23T12:56:30;13.43;;;4.65;;
22929;SDS011;11630;42.660;23.292;2022-07-23T12:59:07;15.38;;;5.00;;
22929;SDS011;11630;42.660;23.292;2022-07-23T13:01:40;17.35;;;4.42;;
22929;SDS011;11630;42.660;23.292;2022-07-23T13:04:18;16.90;;;4.22;;
22929;SDS011;11630;42.660;23.292;2022-07-23T13:06:50;14.13;;;5.25;;
22929;SDS011;11630;42.660;23.292;2022-07-23T13:09:29;17.12;;;4.50;;
22929;SDS011;11630;42.660;23.292;2022-07-23T13:12:01;20.90;;;5.58;;
22929;SDS011;11630;42.660;23.292;2022-07-23T13:14:32;15.25;;;4.87;;
22929;SDS011;11630;42.660;23.292;2022-07-23T13:17:02;16.52;;;4.58;;
22929;SDS011;11630;42.660;23.292;2022-07-23T13:19:33;17.20;;;5.40;;
22929;SDS011;11630;42.660;23.292;2022-07-23T13:22:04;19.50;;;5.15;;
22929;SDS011;11630;42.660;23.292;2022-07-23T13:24:35;20.65;;;4.35;;
22929;SDS011;11630;42.660;23.292;2022-07-23T13:27:06;16.37;;;5.05;;
22929;SDS011;11630;42.660;23.292;2022-07-23T13:29:36;8.73;;;4.65;;
22929;SDS011;11630;42.660;23.292;2022-07-23T13:32:07;11.33;;;5.53;;
22929;SDS011;11630;42.660;23.292;2022-07-23T13:34:36;7.28;;;5.15;;
22929;SDS011;11630;42.660;23.292;2022-07-23T13:37:06;11.93;;;5.37;;
22929;SDS011;11630;42.660;23.292;2022-07-23T13:39:36;11.08;;;4.53;;
22929;SDS011;11630;42.660;23.292;2022-07-23T13:42:06;15.95;;;5.20;;
22929;SDS011;11630;42.660;23.292;2022-07-23T13:44:37;10.65;;;3.92;;
22929;SDS011;11630;42.660;23.292;2022-07-23T13:47:09;10.98;;;4.42;;
22929;SDS011;11630;42.660;23.292;2022-07-23T13:49:39;12.55;;;5.00;;
22929;SDS011;11630;42.660;23.292;2022-07-23T13:52:11;14.13;;;4.53;;
22929;SDS011;11630;42.660;23.292;2022-07-23T13:54:41;9.55;;;4.42;;
22929;SDS011;11630;42.660;23.292;2022-07-23T13:57:10;11.73;;;4.20;;
22929;SDS011;11630;42.660;23.292;2022-07-23T13:59:40;15.10;;;5.10;;
22929;SDS011;11630;42.660;23.292;2022-07-23T14:02:11;15.40;;;5.30;;
22929;SDS011;11630;42.660;23.292;2022-07-23T14:04:44;9.03;;;4.55;;
22929;SDS011;11630;42.660;23.292;2022-07-23T14:07:14;9.65;;;5.08;;
22929;SDS011;11630;42.660;23.292;2022-07-23T14:09:46;13.38;;;5.47;;
22929;SDS011;11630;42.660;23.292;2022-07-23T14:12:17;14.13;;;4.67;;
22929;SDS011;11630;42.660;23.292;2022-07-23T14:14:48;8.13;;;4.35;;
22929;SDS011;11630;42.660;23.292;2022-07-23T14:17:19;16.32;;;4.80;;
22929;SDS011;11630;42.660;23.292;2022-07-23T14:19:49;12.73;;;4.87;;
22929;SDS011;11630;42.660;23.292;2022-07-23T14:22:19;8.85;;;4.22;;
22929;SDS011;11630;42.660;23.292;2022-07-23T14:24:50;10.80;;;4.08;;
22929;SDS011;11630;42.660;23.292;2022-07-23T14:27:23;24.35;;;5.10;;
22929;SDS011;11630;42.660;23.292;2022-07-23T14:29:55;13.95;;;5.55;;
22929;SDS011;11630;42.660;23.292;2022-07-23T14:32:25;11.57;;;4.58;;
22929;SDS011;11630;42.660;23.292;2022-07-23T14:34:57;38.35;;;6.65;;
22929;SDS011;11630;42.660;23.292;2022-07-23T14:37:28;20.10;;;5.08;;
22929;SDS011;11630;42.660;23.292;2022-07-23T14:39:59;10.65;;;4.65;;
22929;SDS011;11630;42.660;23.292;2022-07-23T14:42:30;12.58;;;5.55;;
22929;SDS011;11630;42.660;23.292;2022-07-23T14:45:00;17.67;;;4.40;;
22929;SDS011;11630;42.660;23.292;2022-07-23T14:47:32;27.50;;;5.83;;
22929;SDS011;11630;42.660;23.292;2022-07-23T14:50:03;13.53;;;4.47;;
22929;SDS011;11630;42.660;23.292;2022-07-23T14:52:35;7.70;;;4.30;;
22929;SDS011;11630;42.660;23.292;2022-07-23T14:55:06;14.10;;;5.12;;
22929;SDS011;11630;42.660;23.292;2022-07-23T14:57:39;16.52;;;6.35;;
22929;SDS011;11630;42.660;23.292;2022-07-23T15:00:13;11.90;;;4.97;;
22929;SDS011;11630;42.660;23.292;2022-07-23T15:02:44;17.32;;;4.85;;
22929;SDS011;11630;42.660;23.292;2022-07-23T15:05:15;8.95;;;3.83;;
22929;SDS011;11630;42.660;23.292;2022-07-23T15:07:46;12.82;;;5.28;;
22929;SDS011;11630;42.660;23.292;2022-07-23T15:10:18;18.35;;;6.55;;
22929;SDS011;11630;42.660;23.292;2022-07-23T15:12:48;14.25;;;5.10;;
22929;SDS011;11630;42.660;23.292;2022-07-23T15:15:20;13.30;;;5.15;;